createdAt,value
2018-09-03T00:00:02.204Z,3.30
2018-09-03T00:02:34.516Z,3.50
2018-09-03T00:05:06.855Z,3.33
2018-09-03T00:07:39.185Z,2.87
2018-09-03T00:10:11.512Z,3.13
2018-09-03T00:12:43.833Z,3.27
2018-09-03T00:15:16.168Z,3.27
2018-09-03T00:17:48.491Z,3.00
2018-09-03T00:20:20.824Z,3.10
2018-09-03T00:22:53.144Z,2.97
2018-09-03T00:25:25.470Z,3.47
2018-09-03T00:27:57.784Z,3.00
2018-09-03T00:30:30.092Z,2.83
2018-09-03T00:33:02.405Z,3.00
2018-09-03T00:35:34.736Z,3.47
2018-09-03T00:38:07.049Z,3.20
2018-09-03T00:40:39.365Z,2.87
2018-09-03T00:43:11.680Z,3.40
2018-09-03T00:45:44.013Z,3.30
2018-09-03T00:48:16.332Z,3.27
2018-09-03T00:50:48.664Z,3.70
2018-09-03T00:53:21.003Z,3.30
2018-09-03T00:55:53.339Z,3.33
2018-09-03T00:58:25.661Z,3.30
2018-09-03T01:00:57.981Z,3.17
2018-09-03T01:03:31.270Z,3.30
2018-09-03T01:08:53.341Z,3.60
2018-09-03T01:11:27.000Z,3.20
2018-09-03T01:13:59.310Z,3.23
2018-09-03T01:16:31.649Z,3.77
2018-09-03T01:19:04.100Z,3.50
2018-09-03T01:21:36.438Z,3.37
2018-09-03T01:24:08.751Z,3.20
2018-09-03T01:26:41.110Z,3.70
2018-09-03T01:29:13.428Z,3.47
2018-09-03T01:31:45.773Z,3.70
2018-09-03T01:34:18.093Z,3.53
2018-09-03T01:36:50.549Z,3.90
2018-09-03T01:39:22.854Z,3.70
2018-09-03T01:41:55.176Z,3.60
2018-09-03T01:44:27.521Z,3.63
2018-09-03T01:46:59.840Z,3.40
2018-09-03T01:49:32.164Z,3.67
2018-09-03T01:52:04.480Z,3.70
2018-09-03T01:54:36.799Z,3.53
2018-09-03T01:57:09.116Z,3.77
2018-09-03T01:59:41.437Z,3.53
2018-09-03T02:02:13.759Z,3.50
2018-09-03T02:04:46.072Z,3.50
2018-09-03T02:07:18.385Z,3.90
2018-09-03T02:09:50.700Z,3.30
2018-09-03T02:12:23.027Z,3.53
2018-09-03T02:14:55.337Z,3.80
2018-09-03T02:17:27.656Z,3.67
2018-09-03T02:19:59.992Z,3.37
2018-09-03T02:22:32.320Z,3.30
2018-09-03T02:25:05.176Z,3.87
2018-09-03T02:27:37.492Z,3.70
2018-09-03T02:30:10.113Z,3.53
2018-09-03T02:32:42.440Z,4.07
2018-09-03T02:35:14.745Z,3.47
2018-09-03T02:37:47.076Z,3.80
2018-09-03T02:40:19.709Z,3.93
2018-09-03T02:42:52.036Z,3.80
2018-09-03T02:45:24.351Z,3.73
2018-09-03T02:47:56.672Z,3.87
2018-09-03T02:50:28.987Z,4.00
2018-09-03T02:53:01.304Z,3.73
2018-09-03T02:55:33.620Z,3.77
2018-09-03T02:58:05.952Z,3.80
2018-09-03T03:00:38.265Z,3.50
2018-09-03T03:03:10.576Z,3.77
2018-09-03T03:05:42.883Z,3.60
2018-09-03T03:08:15.201Z,3.70
2018-09-03T03:10:47.524Z,3.73
2018-09-03T03:13:19.836Z,3.77
2018-09-03T03:15:52.150Z,3.60
2018-09-03T03:18:24.492Z,3.90
2018-09-03T03:20:57.130Z,4.00
2018-09-03T03:23:29.440Z,3.70
2018-09-03T03:26:01.746Z,3.90
2018-09-03T03:28:34.064Z,4.07
2018-09-03T03:31:06.427Z,3.77
2018-09-03T03:33:38.765Z,3.67
2018-09-03T03:36:11.079Z,3.73
2018-09-03T03:38:43.416Z,3.40
2018-09-03T03:41:15.740Z,4.30
2018-09-03T03:43:48.068Z,3.57
2018-09-03T03:46:20.416Z,3.80
2018-09-03T03:48:52.763Z,3.97
2018-09-03T03:51:25.097Z,4.00
2018-09-03T03:53:57.422Z,3.90
2018-09-03T03:56:29.740Z,4.33
2018-09-03T03:59:02.464Z,3.50
2018-09-03T04:01:34.803Z,3.97
2018-09-03T04:04:07.143Z,4.30
2018-09-03T04:06:39.471Z,3.93
2018-09-03T04:09:11.788Z,4.43
2018-09-03T04:11:44.109Z,4.17
2018-09-03T04:14:16.483Z,4.03
2018-09-03T04:16:48.844Z,3.90
2018-09-03T04:19:21.184Z,4.00
2018-09-03T04:21:53.500Z,3.90
2018-09-03T04:24:25.864Z,4.37
2018-09-03T04:26:58.203Z,3.93
2018-09-03T04:29:30.542Z,3.77
2018-09-03T04:32:02.877Z,3.87
2018-09-03T04:34:35.217Z,3.70
2018-09-03T04:37:07.565Z,4.37
2018-09-03T04:39:39.912Z,4.07
2018-09-03T04:42:12.256Z,4.13
2018-09-03T04:44:44.597Z,3.80
2018-09-03T04:47:16.936Z,3.73
2018-09-03T04:49:49.271Z,3.90
2018-09-03T04:52:21.592Z,4.30
2018-09-03T04:54:53.943Z,4.07
2018-09-03T04:57:26.297Z,3.40
2018-09-03T04:59:58.650Z,4.00
2018-09-03T05:02:30.986Z,4.10
2018-09-03T05:05:03.379Z,3.90
2018-09-03T05:07:35.674Z,3.93
2018-09-03T05:10:08.025Z,4.10
2018-09-03T05:12:40.452Z,3.77
2018-09-03T05:15:12.812Z,3.90
2018-09-03T05:17:45.140Z,4.30
2018-09-03T05:20:17.712Z,3.87
2018-09-03T05:22:50.049Z,4.50
2018-09-03T05:25:22.419Z,4.47
2018-09-03T05:27:54.737Z,4.37
2018-09-03T05:30:27.089Z,4.43
2018-09-03T05:32:59.426Z,4.23
2018-09-03T05:35:31.763Z,4.60
2018-09-03T05:38:04.110Z,4.83
2018-09-03T05:40:36.749Z,4.67
2018-09-03T05:43:10.265Z,4.70
2018-09-03T05:45:44.112Z,4.60
2018-09-03T05:48:16.461Z,4.50
2018-09-03T05:50:49.024Z,4.90
2018-09-03T05:53:24.021Z,4.73
2018-09-03T05:55:58.468Z,4.43
2018-09-03T05:58:31.040Z,4.67
2018-09-03T06:01:04.466Z,4.90
2018-09-03T06:03:38.215Z,4.63
2018-09-03T06:06:10.548Z,5.03
2018-09-03T06:08:42.892Z,5.50
2018-09-03T06:11:15.390Z,5.93
2018-09-03T06:13:47.565Z,5.13
2018-09-03T06:16:21.935Z,5.60
2018-09-03T06:18:55.432Z,5.93
2018-09-03T06:21:31.780Z,5.37
2018-09-03T06:24:06.716Z,5.47
2018-09-03T06:26:39.088Z,4.73
2018-09-03T06:29:11.426Z,4.63
2018-09-03T06:31:43.748Z,4.80
2018-09-03T06:34:16.090Z,4.70
2018-09-03T06:36:48.424Z,4.83
2018-09-03T06:39:20.844Z,5.27
2018-09-03T06:41:53.075Z,5.20
2018-09-03T06:44:25.396Z,6.07
2018-09-03T06:46:57.724Z,5.23
2018-09-03T06:49:30.056Z,4.73
2018-09-03T06:52:02.401Z,4.60
2018-09-03T06:54:34.721Z,4.63
2018-09-03T06:57:07.072Z,4.70
2018-09-03T06:59:39.490Z,4.87
2018-09-03T07:02:11.768Z,4.60
2018-09-03T07:04:44.132Z,5.23
2018-09-03T07:07:16.456Z,5.17
2018-09-03T07:09:48.772Z,5.70
2018-09-03T07:12:21.126Z,5.00
2018-09-03T07:14:53.455Z,6.17
2018-09-03T07:17:25.779Z,5.10
2018-09-03T07:19:58.104Z,5.47
2018-09-03T07:22:30.446Z,5.30
2018-09-03T07:25:02.784Z,6.07
2018-09-03T07:27:35.113Z,5.37
2018-09-03T07:30:07.432Z,5.27
2018-09-03T07:32:40.452Z,4.90
2018-09-03T07:35:12.808Z,6.23
2018-09-03T07:37:45.117Z,6.00
2018-09-03T07:40:17.504Z,5.53
2018-09-03T07:42:49.837Z,6.33
2018-09-03T07:45:22.166Z,5.57
2018-09-03T07:47:54.576Z,6.20
2018-09-03T07:50:26.872Z,6.03
2018-09-03T07:52:59.206Z,6.10
2018-09-03T07:55:38.297Z,6.30
2018-09-03T07:58:10.637Z,5.93
2018-09-03T08:00:42.948Z,6.30
2018-09-03T08:03:15.278Z,5.63
2018-09-03T08:05:47.580Z,6.27
2018-09-03T08:08:19.921Z,7.27
2018-09-03T08:10:52.230Z,6.80
2018-09-03T08:13:24.552Z,6.63
2018-09-03T08:15:56.862Z,6.83
2018-09-03T08:18:29.200Z,6.83
2018-09-03T08:21:01.517Z,7.93
2018-09-03T08:23:33.841Z,7.20
2018-09-03T08:26:06.168Z,6.53
2018-09-03T08:28:38.871Z,7.53
2018-09-03T08:31:11.182Z,7.20
2018-09-03T08:33:43.514Z,7.87
2018-09-03T08:36:15.885Z,7.30
2018-09-03T08:38:48.214Z,7.10
2018-09-03T08:41:20.542Z,7.00
2018-09-03T08:43:52.952Z,7.63
2018-09-03T08:46:25.280Z,7.73
2018-09-03T08:48:57.600Z,8.43
2018-09-03T08:51:29.916Z,15.10
2018-09-03T08:54:02.256Z,11.70
2018-09-03T08:56:34.576Z,8.27
2018-09-03T08:59:06.917Z,9.10
2018-09-03T09:01:39.236Z,8.53
2018-09-03T09:04:11.662Z,8.97
2018-09-03T09:06:44.048Z,9.93
2018-09-03T09:09:16.368Z,9.47
2018-09-03T09:11:48.994Z,10.63
2018-09-03T09:14:21.300Z,11.53
2018-09-03T09:16:53.618Z,9.50
2018-09-03T09:19:25.970Z,7.70
2018-09-03T09:21:58.301Z,8.13
2018-09-03T09:24:30.716Z,8.80
2018-09-03T09:27:02.949Z,8.03
2018-09-03T09:29:35.376Z,8.00
2018-09-03T09:32:07.682Z,8.63
2018-09-03T09:34:40.028Z,8.80
2018-09-03T09:37:12.328Z,9.00
2018-09-03T09:39:44.666Z,8.30
2018-09-03T09:42:16.980Z,8.37
2018-09-03T09:44:49.298Z,8.40
2018-09-03T09:47:21.612Z,9.10
2018-09-03T09:49:54.259Z,8.40
2018-09-03T09:52:26.589Z,7.67
2018-09-03T09:54:59.018Z,7.63
2018-09-03T09:57:31.271Z,8.73
2018-09-03T10:00:03.681Z,8.27
2018-09-03T10:02:35.998Z,8.20
2018-09-03T10:05:08.316Z,8.67
2018-09-03T10:07:40.632Z,8.93
2018-09-03T10:10:12.952Z,9.23
2018-09-03T10:12:45.288Z,9.47
2018-09-03T10:15:17.720Z,8.33
2018-09-03T10:17:50.037Z,7.73
2018-09-03T10:20:22.516Z,8.77
2018-09-03T10:22:54.821Z,8.60
2018-09-03T10:25:27.144Z,7.47
2018-09-03T10:27:59.460Z,8.23
2018-09-03T10:30:31.783Z,7.63
2018-09-03T10:33:04.101Z,7.10
2018-09-03T10:35:36.485Z,7.00
2018-09-03T10:38:08.811Z,9.17
2018-09-03T10:40:41.235Z,7.57
2018-09-03T10:43:13.636Z,7.70
2018-09-03T10:45:45.972Z,7.50
2018-09-03T10:48:18.296Z,6.72
2018-09-03T10:50:50.613Z,8.63
2018-09-03T10:53:22.936Z,7.80
2018-09-03T10:55:55.274Z,7.70
2018-09-03T10:58:27.781Z,7.42
2018-09-03T11:01:00.088Z,7.03
2018-09-03T11:03:32.492Z,7.30
2018-09-03T11:06:05.124Z,7.27
2018-09-03T11:08:37.476Z,9.05
2018-09-03T11:11:09.844Z,7.62
2018-09-03T11:13:42.164Z,7.25
2018-09-03T11:16:14.492Z,7.30
2018-09-03T11:18:46.805Z,6.40
2018-09-03T11:21:19.298Z,6.95
2018-09-03T11:23:51.460Z,6.22
2018-09-03T11:26:24.288Z,7.03
2018-09-03T11:28:56.617Z,6.70
2018-09-03T11:31:28.954Z,6.90
2018-09-03T11:34:01.454Z,6.62
2018-09-03T11:36:34.108Z,5.65
2018-09-03T11:39:07.493Z,7.90
2018-09-03T11:41:39.828Z,7.20
2018-09-03T11:44:12.274Z,7.35
2018-09-03T11:46:44.616Z,7.17
2018-09-03T11:49:17.259Z,8.38
2018-09-03T11:51:49.591Z,7.33
2018-09-03T11:54:21.934Z,6.62
2018-09-03T11:56:54.249Z,6.78
2018-09-03T11:59:26.596Z,7.63
2018-09-03T12:01:58.960Z,7.50
2018-09-03T12:04:31.248Z,7.15
2018-09-03T12:07:10.269Z,8.08
2018-09-03T12:09:42.592Z,5.90
2018-09-03T12:12:14.928Z,8.13
2018-09-03T12:14:47.248Z,7.30
2018-09-03T12:17:19.573Z,7.83
2018-09-03T12:19:51.905Z,7.17
2018-09-03T12:22:24.248Z,7.50
2018-09-03T12:24:56.588Z,6.60
2018-09-03T12:27:28.926Z,7.43
2018-09-03T12:30:01.247Z,8.60
2018-09-03T12:32:33.567Z,9.10
2018-09-03T12:35:05.892Z,10.00
2018-09-03T12:37:38.203Z,9.63
2018-09-03T12:40:10.534Z,8.73
2018-09-03T12:42:42.844Z,10.57
2018-09-03T12:45:15.172Z,10.33
2018-09-03T12:47:47.500Z,10.17
2018-09-03T12:50:19.855Z,8.60
2018-09-03T12:52:52.160Z,8.07
2018-09-03T12:55:24.501Z,7.37
2018-09-03T12:57:57.104Z,7.05
2018-09-03T13:00:29.509Z,8.13
2018-09-03T13:03:01.964Z,6.63
2018-09-03T13:05:34.164Z,8.83
2018-09-03T13:08:06.504Z,8.17
2018-09-03T13:10:38.821Z,8.20
2018-09-03T13:13:11.166Z,8.68
2018-09-03T13:15:43.493Z,9.70
2018-09-03T13:18:15.813Z,10.47
2018-09-03T13:20:48.141Z,11.47
2018-09-03T13:23:20.780Z,11.53
2018-09-03T13:25:53.105Z,9.35
2018-09-03T13:28:25.432Z,10.53
2018-09-03T13:30:57.769Z,9.90
2018-09-03T13:33:30.099Z,10.25
2018-09-03T13:36:02.466Z,9.93
2018-09-03T13:38:34.767Z,11.00
2018-09-03T13:41:07.095Z,12.33
2018-09-03T13:43:39.412Z,9.90
2018-09-03T13:46:11.743Z,10.35
2018-09-03T13:48:44.060Z,10.43
2018-09-03T13:51:16.399Z,7.60
2018-09-03T13:53:48.814Z,7.80
2018-09-03T13:56:21.214Z,9.38
2018-09-03T13:58:53.505Z,10.95
2018-09-03T14:01:25.833Z,10.72
2018-09-03T14:03:58.206Z,11.38
2018-09-03T14:06:30.552Z,12.60
2018-09-03T14:09:03.716Z,11.60
2018-09-03T14:11:36.083Z,12.55
2018-09-03T14:14:08.385Z,11.50
2018-09-03T14:16:40.712Z,10.70
2018-09-03T14:19:13.028Z,11.38
2018-09-03T14:21:45.373Z,11.60
2018-09-03T14:24:17.682Z,10.28
2018-09-03T14:26:50.017Z,10.48
2018-09-03T14:29:22.353Z,12.90
2018-09-03T14:31:54.694Z,10.58
2018-09-03T14:34:27.007Z,10.95
2018-09-03T14:36:59.408Z,11.88
2018-09-03T14:39:31.716Z,13.00
2018-09-03T14:42:04.049Z,11.35
2018-09-03T14:44:36.368Z,11.95
2018-09-03T14:47:08.730Z,13.07
2018-09-03T14:49:41.122Z,12.13
2018-09-03T14:52:13.373Z,12.70
2018-09-03T14:54:45.719Z,12.33
2018-09-03T14:57:18.058Z,12.73
2018-09-03T14:59:50.405Z,14.33
2018-09-03T15:02:22.761Z,12.37
2018-09-03T15:04:55.081Z,9.73
2018-09-03T15:07:27.416Z,10.67
2018-09-03T15:09:59.754Z,13.75
2018-09-03T15:12:32.133Z,13.80
2018-09-03T15:15:04.555Z,12.67
2018-09-03T15:17:36.796Z,12.60
2018-09-03T15:20:09.131Z,12.63
2018-09-03T15:22:41.496Z,12.13
2018-09-03T15:25:13.827Z,13.40
2018-09-03T15:27:46.163Z,12.83
2018-09-03T15:30:18.504Z,13.73
2018-09-03T15:32:50.857Z,13.17
2018-09-03T15:35:23.190Z,10.93
2018-09-03T15:37:55.540Z,12.70
2018-09-03T15:40:28.102Z,12.93
2018-09-03T15:43:00.554Z,12.87
2018-09-03T15:45:32.813Z,12.40
2018-09-03T15:48:05.184Z,12.57
2018-09-03T15:50:37.624Z,13.80
2018-09-03T15:53:10.129Z,13.20
2018-09-03T15:55:42.473Z,12.93
2018-09-03T15:58:14.796Z,13.30
2018-09-03T16:00:47.315Z,10.93
2018-09-03T16:03:19.638Z,13.60
2018-09-03T16:05:51.963Z,13.40
2018-09-03T16:08:24.297Z,12.17
2018-09-03T16:10:56.664Z,13.43
2018-09-03T16:13:29.040Z,13.77
2018-09-03T16:16:01.557Z,12.87
2018-09-03T16:18:33.909Z,13.53
2018-09-03T16:21:06.275Z,13.30
2018-09-03T16:23:38.882Z,14.90
2018-09-03T16:26:11.647Z,16.17
2018-09-03T16:28:44.143Z,15.13
2018-09-03T16:31:16.666Z,15.30
2018-09-03T16:33:49.178Z,15.00
2018-09-03T16:36:21.644Z,13.80
2018-09-03T16:38:54.031Z,14.17
2018-09-03T16:41:26.296Z,14.73
2018-09-03T16:43:58.619Z,14.93
2018-09-03T16:46:30.945Z,15.13
2018-09-03T16:49:03.297Z,14.80
2018-09-03T16:51:35.632Z,15.27
2018-09-03T16:54:07.964Z,14.60
2018-09-03T16:56:40.546Z,15.20
2018-09-03T16:59:12.889Z,15.40
2018-09-03T17:01:45.209Z,15.57
2018-09-03T17:04:17.556Z,14.60
2018-09-03T17:06:49.880Z,14.63
2018-09-03T17:09:22.214Z,15.53
2018-09-03T17:11:54.674Z,14.63
2018-09-03T17:14:26.996Z,15.80
2018-09-03T17:16:59.341Z,15.33
2018-09-03T17:19:31.680Z,15.50
2018-09-03T17:22:04.060Z,15.40
2018-09-03T17:24:36.426Z,14.27
2018-09-03T17:27:08.754Z,14.97
2018-09-03T17:29:41.105Z,15.23
2018-09-03T17:32:13.457Z,15.50
2018-09-03T17:34:45.806Z,16.23
2018-09-03T17:37:18.201Z,14.63
2018-09-03T17:39:50.562Z,14.53
2018-09-03T17:42:22.881Z,15.23
2018-09-03T17:44:55.249Z,14.67
2018-09-03T17:47:27.592Z,13.90
2018-09-03T17:50:00.264Z,14.80
2018-09-03T17:52:32.602Z,14.80
2018-09-03T17:55:05.425Z,15.10
2018-09-03T17:57:37.832Z,14.07
2018-09-03T18:00:10.177Z,15.60
2018-09-03T18:02:42.510Z,14.00
2018-09-03T18:05:14.868Z,14.30
2018-09-03T18:07:47.269Z,13.90
2018-09-03T18:10:19.604Z,15.07
2018-09-03T18:12:51.956Z,14.47
2018-09-03T18:15:24.303Z,14.03
2018-09-03T18:17:56.633Z,14.40
2018-09-03T18:20:28.966Z,13.60
2018-09-03T18:23:01.379Z,15.03
2018-09-03T18:25:33.711Z,15.70
2018-09-03T18:28:06.045Z,16.13
2018-09-03T18:30:38.385Z,13.80
2018-09-03T18:33:10.801Z,14.87
2018-09-03T18:35:43.141Z,14.77
2018-09-03T18:38:15.468Z,13.60
2018-09-03T18:40:47.888Z,15.30
2018-09-03T18:43:20.208Z,15.00
2018-09-03T18:45:52.555Z,16.20
2018-09-03T18:48:24.893Z,16.97
2018-09-03T18:50:57.244Z,16.37
2018-09-03T18:53:29.580Z,17.17
2018-09-03T18:56:01.975Z,16.87
2018-09-03T18:58:34.300Z,16.07
2018-09-03T19:01:06.696Z,15.47
2018-09-03T19:03:39.045Z,14.80
2018-09-03T19:06:12.012Z,15.43
2018-09-03T19:08:44.289Z,14.50
2018-09-03T19:11:16.611Z,13.53
2018-09-03T19:13:48.968Z,15.13
2018-09-03T19:16:21.304Z,16.00
